AirNav   Textron
 
 905 users online  

M41 Holly Springs-Marshall County Airport
Holly Springs, Mississippi, USA

GOING TO HOLLY SPRINGS?


FAA INFORMATION EFFECTIVE 07 DECEMBER 2017

Location

FAA Identifier: M41
Lat/Long: 34-48-15.7000N / 089-31-16.0000W
34-48.261667N / 089-31.266667W
34.8043611 / -89.5211111
(estimated)
Elevation: 551.3 ft. / 168.0 m (surveyed)
Variation: 02W (2020)
From city: 4 miles W of HOLLY SPRINGS, MS
Time zone: UTC -6 (UTC -5 during Daylight Saving Time)
Zip code: 38635

Airport Operations

Airport use: Open to the public
Activation date: 09/1973
Control tower: no
ARTCC: MEMPHIS CENTER
FSS: GREENWOOD FLIGHT SERVICE STATION
NOTAMs facility: GWO (NOTAM-D service available)
Attendance: MON-FRI 0800-1700
Wind indicator: lighted
Segmented circle: yes
Lights: SS-SR
Beacon: white-green (lighted land airport)
Operates sunset to sunrise.

Airport Communications

CTAF/UNICOM: 122.8
MEMPHIS APPROACH: 125.8 120.07 [0600-2300]
MEMPHIS DEPARTURE: 124.15 [0600-2300]
WX AWOS-3 at OLV (17 nm NW): 119.925 (662-893-5906)

Nearby radio navigation aids

VOR radial/distance  VOR name  Freq  Var
HLIr326/2.4HOLLY SPRINGS VORTAC112.4003E
MEMr118/26.0MEMPHIS VORTAC117.5001E

Airport Services

Fuel available: 100LL JET-A
FUEL 24 HR CREDIT CARD SVC AVBL.
Parking: tiedowns
Airframe service: MAJOR
Powerplant service: MAJOR
Bottled oxygen: NONE
Bulk oxygen: NONE

Runway Information

Runway 18/36

Dimensions: 3202 x 60 ft. / 976 x 18 m
Surface: asphalt, in fair condition
Weight bearing capacity: 
Single wheel: 15.0
Runway edge lights: medium intensity
Runway edge markings: RWY 18/36 MARKINGS FADED.
RUNWAY 18  RUNWAY 36
Latitude: 34-48.524833N34-47.997133N
Longitude: 089-31.271980W089-31.261590W
Elevation: 516.7 ft.551.3 ft.
Gradient: 1.1%1.1%
Traffic pattern: leftleft
Runway heading: 181 magnetic, 179 true001 magnetic, 359 true
Markings: nonprecision, in poor conditionnonprecision, in poor condition
Visual slope indicator: 2-light PAPI on left (2.75 degrees glide path)2-light PAPI on left (3.25 degrees glide path)
Touchdown point: yes, no lightsyes, no lights

Airport Ownership and Management from official FAA records

Ownership: Publicly-owned
Owner: CITY OF HOLLY SPRINGS
520 J. M. ASH DRIVE
HOLLY SPRINGS, MS 38635
Phone 662-252-4652
AND MARSHALL COUNTY.
Manager: JUSTIN HALL
520 J. M. ASH DRIVE, PO BOX 128
HOLLY SPRINGS, MS 38635
Phone 662-252-3916

Airport Operational Statistics

Aircraft based on the field: 12
Single engine airplanes: 12
    
Aircraft operations: avg 35/day *
60% transient general aviation
40% local general aviation
<1% military
* for 12-month period ending 13 December 2016

Additional Remarks

PAEW; CALL FOR CURRENT NOTAM.
FOR CD CTC MEM APCH AT 901-842-8457.

Instrument Procedures

NOTE: All procedures below are presented as PDF files. If you need a reader for these files, you should download the free Adobe Reader.

NOT FOR NAVIGATION. Please procure official charts for flight.
FAA instrument procedures published for use between 7 December 2017 at 0901Z and 4 January 2018 at 0900Z.

 
IAPs - Instrument Approach Procedures
RNAV (GPS) RWY 18   download (192KB)
RNAV (GPS) RWY 36   download (201KB)
VOR RWY 18   download (189KB)
NOTE: Special Take-Off Minimums/Departure Procedures apply   download (150KB)

Other nearby airports with instrument procedures:

KOLV - Olive Branch Airport (17 nm NW)
KFYE - Fayette County Airport (25 nm N)
KUOX - University-Oxford Airport (25 nm S)
25M - Ripley Airport (25 nm E)
KMEM - Memphis International Airport (27 nm NW)
 
Loc | Ops | Rwys | IFR | FBO | Links
Com | Nav | Svcs | Stats | Notes


 
Area around M41 (Holly Springs-Marshall County Airport)
 
Road maps at: MapQuest Bing Google
 
Aerial photo
WARNING: Photo may not be current or correct
Aerial photo of M41 (Holly Springs-Marshall County Airport)
Do you have a better or more recent aerial photo of Holly Springs-Marshall County Airport that you would like to share? If so, please send us your photo.

 
Sectional chart

 
Airport distance calculator
Flying to Holly Springs-Marshall County Airport? Find the distance to fly.

From to M41

Sunrise and sunset
Times for 16-Dec-2017
 Local
(UTC-6)
 Zulu
(UTC)
Morning civil twilight06:3212:32
Sunrise07:0013:00
Sunset16:4822:48
Evening civil twilight17:1623:16

Current date and time
Zulu (UTC)  16-Dec-2017 19:52:17
Local (UTC-6)  16-Dec-2017 13:52:17
 
METAR
KOLV 
17nm NW 
161850Z 20009KT 10SM BKN250 12/M01 A3016
KFYE 
25nm N 
161935Z AUTO 20013KT 10SM CLR 12/M01 A3015 RMK A01
KUOX 
25nm S 
161935Z AUTO 21006G11KT 10SM CLR 12/M03 A3020 RMK AO2
KMEM 
28nm NW 
161854Z 23010G19KT 190V260 10SM BKN250 12/M01 A3018 RMK AO2 SLP220 T01221006 $
KPMU 
32nm SW 
161935Z AUTO 19009KT 10SM CLR 12/M04 A3019 RMK AO2 T01241043
TAF
KMEM 
28nm NW 
161743Z 1618/1724 20010G16KT P6SM SCT250 FM162300 18006KT P6SM SCT150 BKN250 FM170400 17004KT P6SM VCSH BKN100 FM170800 15004KT 6SM -SHRA BR SCT035 BKN050 FM171100 12005KT 4SM SHRA BR OVC015 FM171500 14006KT P6SM VCSH OVC020 FM171800 21006KT P6SM BKN025
NOTAMs
Click for the latest NOTAMs
NOTAMs are issued by the DoD/FAA and will open in a separate window not controlled by AirNav.

 

 
 

FBO, Fuel Providers, and Aircraft Ground Support

  
 Business Name 
 
 Contact 
 
 Services / Description 
 
Fuel Prices
 
Comments
  
John Jewell Aircraft 662-252-6377
no information available

If you are affiliated with John Jewell Aircraft and would like to show here your services, contact info, web link, logo, and more, click here
100LL
SS $4.93 
 Updated 13-Dec-2017
 
   write
SS=Self service
Update Fuel Prices
 

Would you like to see your business listed on this page?

 If your business provides an interesting product or service to pilots, flight crews, aircraft, or users of the Holly Springs-Marshall County Airport, you should consider listing it here.  To start the listing process, click on the button below
 
Add a business
 

Other Pages about Holly Springs-Marshall County Airport

Update a link
 
Copyright © AirNav, LLC. All rights reserved. Privacy Policy  Contact